createdAt,value
2017-08-15T00:00:40.889Z,68.70
2017-08-15T00:03:07.676Z,68.90
2017-08-15T00:05:33.724Z,68.80
2017-08-15T00:08:00.485Z,69.00
2017-08-15T00:10:26.526Z,68.90
2017-08-15T00:12:52.561Z,69.70
2017-08-15T00:15:19.325Z,69.50
2017-08-15T00:17:45.341Z,69.10
2017-08-15T00:20:11.399Z,69.10
2017-08-15T00:22:38.164Z,69.20
2017-08-15T00:25:04.221Z,69.10
2017-08-15T00:27:30.237Z,69.30
2017-08-15T00:29:56.276Z,69.40
2017-08-15T00:32:22.346Z,69.60
2017-08-15T00:34:48.394Z,69.40
2017-08-15T00:37:14.441Z,69.50
2017-08-15T00:39:40.493Z,69.60
2017-08-15T00:42:07.268Z,69.80
2017-08-15T00:44:33.306Z,69.80
2017-08-15T00:46:59.358Z,69.90
2017-08-15T00:49:25.378Z,69.90
2017-08-15T00:51:51.430Z,70.00
2017-08-15T00:54:17.457Z,70.10
2017-08-15T00:56:43.514Z,70.00
2017-08-15T00:59:09.577Z,70.30
2017-08-15T01:01:36.341Z,70.30
2017-08-15T01:04:02.393Z,70.30
2017-08-15T01:06:28.424Z,70.20
2017-08-15T01:08:55.205Z,70.60
2017-08-15T01:11:21.226Z,70.40
2017-08-15T01:13:47.249Z,70.60
2017-08-15T01:16:13.305Z,70.60
2017-08-15T01:18:39.344Z,70.60
2017-08-15T01:21:05.369Z,70.60
2017-08-15T01:23:31.393Z,70.70
2017-08-15T01:25:57.413Z,70.70
2017-08-15T01:28:24.177Z,70.80
2017-08-15T01:30:50.198Z,70.80
2017-08-15T01:33:16.219Z,70.70
2017-08-15T01:35:42.237Z,70.80
2017-08-15T01:38:08.249Z,70.90
2017-08-15T01:40:34.281Z,70.70
2017-08-15T01:43:01.034Z,70.70
2017-08-15T01:45:27.045Z,70.70
2017-08-15T01:47:53.061Z,70.70
2017-08-15T01:50:19.089Z,70.60
2017-08-15T01:52:45.120Z,70.60
2017-08-15T01:55:11.140Z,70.70
2017-08-15T01:57:37.929Z,70.80
2017-08-15T02:00:03.980Z,70.80
2017-08-15T02:02:30.761Z,70.60
2017-08-15T02:04:56.813Z,70.50
2017-08-15T02:07:23.586Z,70.40
2017-08-15T02:09:49.620Z,70.80
2017-08-15T02:12:15.661Z,70.90
2017-08-15T02:14:42.425Z,70.80
2017-08-15T02:17:08.436Z,70.80
2017-08-15T02:19:34.469Z,70.80
2017-08-15T02:22:00.494Z,70.80
2017-08-15T02:24:26.522Z,70.70
2017-08-15T02:26:53.277Z,70.70
2017-08-15T02:29:19.303Z,70.60
2017-08-15T02:31:45.313Z,70.80
2017-08-15T02:34:11.370Z,70.80
2017-08-15T02:36:38.122Z,71.40
2017-08-15T02:39:04.562Z,71.10
2017-08-15T02:41:30.570Z,71.00
2017-08-15T02:43:56.581Z,71.10
2017-08-15T02:46:22.600Z,71.00
2017-08-15T02:48:48.627Z,71.20
2017-08-15T02:51:15.409Z,71.90
2017-08-15T02:53:41.441Z,71.00
2017-08-15T02:56:07.481Z,71.20
2017-08-15T02:58:34.269Z,72.20
2017-08-15T03:01:00.294Z,71.50
2017-08-15T03:03:26.312Z,71.40
2017-08-15T03:05:52.365Z,71.50
2017-08-15T03:08:18.409Z,71.50
2017-08-15T03:10:44.482Z,71.70
2017-08-15T03:13:10.527Z,71.60
2017-08-15T03:15:36.574Z,71.90
2017-08-15T03:18:02.616Z,72.10
2017-08-15T03:20:28.641Z,72.20
2017-08-15T03:22:54.680Z,72.20
2017-08-15T03:25:21.469Z,72.50
2017-08-15T03:27:47.513Z,72.50
2017-08-15T03:30:14.321Z,72.50
2017-08-15T03:32:40.355Z,72.50
2017-08-15T03:35:07.150Z,72.90
2017-08-15T03:37:33.226Z,72.80
2017-08-15T03:39:59.313Z,72.90
2017-08-15T03:42:26.084Z,73.90
2017-08-15T03:44:52.126Z,73.50
2017-08-15T03:47:18.149Z,73.70
2017-08-15T03:49:44.173Z,73.90
2017-08-15T03:52:10.944Z,74.30
2017-08-15T03:54:36.977Z,74.20
2017-08-15T03:57:03.045Z,74.50
2017-08-15T03:59:29.082Z,74.60
2017-08-15T04:01:55.100Z,74.90
2017-08-15T04:04:21.141Z,75.00
2017-08-15T04:06:47.927Z,75.20
2017-08-15T04:09:13.953Z,75.20
2017-08-15T04:11:40.002Z,75.50
2017-08-15T04:14:06.061Z,75.90
2017-08-15T04:16:32.113Z,75.90
2017-08-15T04:18:58.873Z,76.00
2017-08-15T04:21:24.934Z,75.90
2017-08-15T04:23:50.977Z,76.20
2017-08-15T04:26:17.238Z,76.10
2017-08-15T04:28:43.292Z,75.90
2017-08-15T04:31:09.362Z,75.90
2017-08-15T04:36:32.313Z,75.90
2017-08-15T04:38:59.069Z,76.80
2017-08-15T04:41:25.112Z,76.20
2017-08-15T04:43:51.143Z,75.90
2017-08-15T04:46:17.925Z,75.80
2017-08-15T04:48:43.934Z,75.80
2017-08-15T04:51:09.988Z,75.90
2017-08-15T04:53:36.008Z,75.90
2017-08-15T04:56:02.030Z,75.70
2017-08-15T04:58:28.809Z,75.50
2017-08-15T05:00:54.844Z,75.50
2017-08-15T05:03:20.870Z,75.70
2017-08-15T05:05:46.905Z,75.50
2017-08-15T05:08:13.073Z,75.60
2017-08-15T05:10:39.098Z,75.50
2017-08-15T05:13:05.121Z,75.40
2017-08-15T05:15:31.132Z,75.00
2017-08-15T05:17:57.187Z,75.20
2017-08-15T05:20:23.225Z,75.20
2017-08-15T05:22:49.243Z,75.40
2017-08-15T05:25:15.253Z,75.60
2017-08-15T05:27:41.260Z,75.70
2017-08-15T05:30:07.284Z,76.00
2017-08-15T05:32:33.330Z,76.30
2017-08-15T05:34:59.349Z,76.70
2017-08-15T05:37:25.356Z,76.80
2017-08-15T05:39:51.380Z,77.00
2017-08-15T05:42:18.138Z,77.00
2017-08-15T05:44:44.152Z,76.90
2017-08-15T05:47:10.157Z,76.90
2017-08-15T05:49:36.205Z,77.00
2017-08-15T05:52:02.229Z,77.10
2017-08-15T05:54:28.286Z,78.00
2017-08-15T05:56:54.341Z,77.50
2017-08-15T05:59:20.381Z,77.70
2017-08-15T06:01:47.156Z,76.80
2017-08-15T06:04:13.196Z,76.80
2017-08-15T06:06:39.261Z,76.60
2017-08-15T06:09:05.292Z,76.40
2017-08-15T06:11:31.333Z,76.60
2017-08-15T06:13:58.105Z,76.10
2017-08-15T06:16:24.129Z,76.00
2017-08-15T06:18:50.136Z,76.20
2017-08-15T06:21:16.156Z,74.90
2017-08-15T06:23:42.210Z,75.20
2017-08-15T06:26:08.254Z,75.10
2017-08-15T06:28:34.288Z,75.00
2017-08-15T06:31:00.308Z,75.70
2017-08-15T06:33:26.324Z,75.40
2017-08-15T06:35:53.076Z,76.50
2017-08-15T06:38:19.097Z,75.90
2017-08-15T06:40:45.108Z,76.00
2017-08-15T06:43:11.148Z,75.90
2017-08-15T06:45:37.164Z,76.10
2017-08-15T06:48:03.193Z,76.20
2017-08-15T06:50:29.326Z,76.40
2017-08-15T06:52:55.372Z,76.80
2017-08-15T06:55:21.418Z,76.90
2017-08-15T06:57:47.497Z,76.80
2017-08-15T07:00:13.541Z,75.90
2017-08-15T07:02:40.313Z,75.90
2017-08-15T07:05:06.349Z,75.90
2017-08-15T07:07:32.393Z,75.70
2017-08-15T07:09:59.153Z,75.10
2017-08-15T07:12:25.171Z,75.10
2017-08-15T07:14:51.213Z,75.10
2017-08-15T07:17:17.219Z,75.30
2017-08-15T07:19:43.241Z,75.00
2017-08-15T07:22:09.996Z,74.30
2017-08-15T07:24:36.056Z,74.20
2017-08-15T07:27:02.082Z,74.00
2017-08-15T07:29:28.100Z,73.60
2017-08-15T07:31:54.130Z,73.40
2017-08-15T07:34:20.168Z,73.40
2017-08-15T07:36:46.193Z,73.00
2017-08-15T07:39:12.215Z,72.80
2017-08-15T07:41:38.254Z,73.10
2017-08-15T07:44:04.278Z,72.00
2017-08-15T07:46:30.302Z,72.50
2017-08-15T07:48:56.328Z,72.60
2017-08-15T07:51:22.368Z,73.00
2017-08-15T07:53:49.150Z,70.80
2017-08-15T07:56:15.214Z,70.80
2017-08-15T07:58:41.969Z,71.40
2017-08-15T08:01:08.005Z,71.20
2017-08-15T08:03:34.031Z,70.90
2017-08-15T08:06:00.085Z,70.70
2017-08-15T08:08:26.120Z,71.20
2017-08-15T08:10:52.137Z,71.20
2017-08-15T08:13:18.177Z,70.50
2017-08-15T08:15:44.188Z,70.90
2017-08-15T08:18:10.971Z,70.20
2017-08-15T08:20:36.985Z,70.10
2017-08-15T08:23:03.016Z,70.00
2017-08-15T08:25:29.030Z,69.40
2017-08-15T08:27:55.053Z,69.30
2017-08-15T08:30:21.830Z,67.90
2017-08-15T08:32:47.876Z,67.90
2017-08-15T08:35:13.896Z,68.00
2017-08-15T08:37:40.683Z,68.10
2017-08-15T08:40:06.692Z,67.30
2017-08-15T08:42:32.731Z,67.40
2017-08-15T08:44:58.761Z,67.70
2017-08-15T08:47:25.516Z,67.30
2017-08-15T08:49:51.539Z,67.30
2017-08-15T08:52:17.583Z,67.50
2017-08-15T08:54:43.644Z,67.60
2017-08-15T08:57:09.750Z,66.50
2017-08-15T08:59:35.796Z,65.90
2017-08-15T09:02:01.849Z,67.00
2017-08-15T09:04:27.873Z,66.30
2017-08-15T09:06:53.890Z,67.20
2017-08-15T09:09:19.925Z,66.20
2017-08-15T09:11:45.956Z,66.10
2017-08-15T09:14:11.997Z,64.80
2017-08-15T09:16:38.045Z,65.20
2017-08-15T09:19:04.088Z,65.70
2017-08-15T09:21:30.857Z,64.20
2017-08-15T09:23:56.881Z,64.20
2017-08-15T09:26:22.908Z,63.10
2017-08-15T09:29:02.908Z,61.30
2017-08-15T09:31:28.966Z,61.20
2017-08-15T09:33:54.995Z,58.80
2017-08-15T09:36:21.793Z,56.80
2017-08-15T09:38:47.821Z,56.80
2017-08-15T09:41:14.597Z,52.90
2017-08-15T09:43:40.620Z,52.80
2017-08-15T09:46:06.643Z,52.50
2017-08-15T09:48:32.677Z,51.00
2017-08-15T09:50:58.693Z,49.60
2017-08-15T09:53:24.721Z,48.00
2017-08-15T09:55:50.736Z,47.50
2017-08-15T09:58:22.885Z,47.10
2017-08-15T10:00:48.908Z,48.50
2017-08-15T10:03:14.933Z,45.90
2017-08-15T10:05:40.936Z,46.70
2017-08-15T10:08:06.977Z,46.40
2017-08-15T10:10:33.761Z,46.50
2017-08-15T10:12:59.776Z,46.50
2017-08-15T10:15:25.799Z,44.60
2017-08-15T10:17:51.828Z,44.80
2017-08-15T10:20:17.840Z,41.50
2017-08-15T10:22:44.605Z,44.70
2017-08-15T10:25:10.620Z,44.60
2017-08-15T10:27:36.640Z,43.90
2017-08-15T10:30:02.677Z,44.00
2017-08-15T10:32:28.688Z,45.60
2017-08-15T10:34:54.696Z,43.90
2017-08-15T10:37:21.469Z,44.40
2017-08-15T10:39:47.501Z,44.30
2017-08-15T10:42:13.532Z,40.60
2017-08-15T10:44:39.561Z,39.80
2017-08-15T10:47:05.625Z,38.50
2017-08-15T10:49:31.660Z,37.80
2017-08-15T10:51:57.685Z,38.70
2017-08-15T10:54:24.448Z,37.80
2017-08-15T10:56:50.472Z,37.70
2017-08-15T10:59:17.289Z,37.30
2017-08-15T11:01:43.328Z,38.20
2017-08-15T11:04:09.335Z,37.30
2017-08-15T11:06:35.353Z,38.40
2017-08-15T11:09:01.373Z,38.60
2017-08-15T11:11:27.419Z,38.70
2017-08-15T11:13:53.431Z,38.40
2017-08-15T11:16:19.472Z,39.40
2017-08-15T11:18:45.484Z,40.80
2017-08-15T11:21:11.512Z,40.90
2017-08-15T11:23:37.516Z,41.20
2017-08-15T11:26:03.553Z,41.20
2017-08-15T11:28:29.580Z,43.50
2017-08-15T11:30:55.605Z,43.60
2017-08-15T11:33:21.649Z,45.60
2017-08-15T11:35:48.412Z,48.20
2017-08-15T11:38:14.457Z,48.70
2017-08-15T11:40:40.468Z,47.90
2017-08-15T11:43:06.605Z,47.90
2017-08-15T11:45:32.650Z,47.00
2017-08-15T11:47:58.926Z,48.40
2017-08-15T11:50:25.002Z,46.40
2017-08-15T11:52:51.056Z,46.10
2017-08-15T11:55:17.813Z,43.50
2017-08-15T11:57:43.902Z,43.50
2017-08-15T12:00:09.932Z,43.90
2017-08-15T12:02:35.972Z,42.90
2017-08-15T12:05:02.001Z,43.20
2017-08-15T12:07:28.029Z,43.20
2017-08-15T12:09:54.807Z,43.00
2017-08-15T12:12:20.822Z,43.00
2017-08-15T12:14:46.852Z,42.10
2017-08-15T12:17:12.865Z,42.00
2017-08-15T12:19:38.892Z,42.10
2017-08-15T12:22:04.951Z,41.90
2017-08-15T12:24:30.985Z,39.30
2017-08-15T12:26:57.019Z,39.50
2017-08-15T12:29:23.043Z,40.10
2017-08-15T12:31:49.084Z,40.60
2017-08-15T12:34:15.088Z,39.60
2017-08-15T12:36:41.108Z,39.40
2017-08-15T12:39:07.161Z,41.50
2017-08-15T12:41:33.947Z,41.80
2017-08-15T12:43:59.977Z,41.70
2017-08-15T12:46:26.006Z,41.80
2017-08-15T12:48:52.013Z,42.90
2017-08-15T12:51:18.245Z,43.30
2017-08-15T12:53:44.276Z,43.80
2017-08-15T12:56:10.297Z,44.20
2017-08-15T12:58:36.337Z,45.20
2017-08-15T13:01:03.113Z,43.80
2017-08-15T13:03:29.134Z,43.40
2017-08-15T13:05:55.141Z,44.50
2017-08-15T13:08:21.184Z,45.00
2017-08-15T13:10:47.937Z,46.10
2017-08-15T13:13:13.953Z,45.90
2017-08-15T13:15:39.992Z,45.80
2017-08-15T13:18:06.037Z,44.90
2017-08-15T13:20:32.081Z,43.90
2017-08-15T13:22:58.132Z,43.60
2017-08-15T13:25:24.180Z,44.40
2017-08-15T13:27:50.948Z,44.10
2017-08-15T13:30:16.960Z,44.10
2017-08-15T13:32:43.004Z,44.80
2017-08-15T13:35:09.781Z,46.00
2017-08-15T13:37:35.816Z,45.30
2017-08-15T13:40:01.855Z,46.30
2017-08-15T13:42:27.864Z,47.00
2017-08-15T13:44:54.634Z,47.60
2017-08-15T13:47:20.659Z,46.90
2017-08-15T13:49:46.680Z,47.50
2017-08-15T13:52:12.717Z,48.10
2017-08-15T13:54:39.475Z,49.50
2017-08-15T13:57:05.493Z,49.40
2017-08-15T13:59:31.548Z,49.70
2017-08-15T14:01:57.569Z,49.00
2017-08-15T14:04:24.328Z,46.80
2017-08-15T14:06:50.360Z,47.20
2017-08-15T14:09:16.381Z,46.60
2017-08-15T14:11:42.442Z,45.50
2017-08-15T14:14:08.476Z,42.30
2017-08-15T14:16:34.518Z,42.00
2017-08-15T14:19:00.548Z,44.80
2017-08-15T14:21:26.633Z,45.30
2017-08-15T14:23:52.657Z,46.00
2017-08-15T14:26:18.692Z,45.90
2017-08-15T14:28:44.716Z,46.30
2017-08-15T14:31:10.749Z,47.70
2017-08-15T14:33:36.794Z,48.40
2017-08-15T14:36:03.581Z,49.40
2017-08-15T14:38:29.636Z,49.40
2017-08-15T14:40:55.655Z,49.90
2017-08-15T14:43:21.698Z,49.50
2017-08-15T14:45:47.724Z,50.50
2017-08-15T14:48:13.749Z,50.50
2017-08-15T14:50:46.689Z,50.40
2017-08-15T14:53:12.722Z,50.80
2017-08-15T14:55:38.773Z,50.90
2017-08-15T14:58:04.801Z,50.90
2017-08-15T15:00:30.865Z,50.80
2017-08-15T15:02:57.645Z,51.60
2017-08-15T15:05:23.700Z,51.60
2017-08-15T15:07:49.741Z,51.90
2017-08-15T15:10:15.789Z,51.90
2017-08-15T15:12:41.822Z,52.10
2017-08-15T15:15:07.855Z,52.30
2017-08-15T15:17:33.900Z,52.60
2017-08-15T15:19:59.936Z,52.90
2017-08-15T15:22:25.984Z,52.80
2017-08-15T15:24:52.745Z,53.00
2017-08-15T15:27:18.800Z,52.90
2017-08-15T15:29:45.574Z,52.10
2017-08-15T15:32:11.613Z,52.10
2017-08-15T15:34:37.636Z,51.30
2017-08-15T15:37:03.833Z,50.50
2017-08-15T15:39:30.612Z,49.40
2017-08-15T15:41:56.646Z,49.40
2017-08-15T15:44:22.696Z,49.30
2017-08-15T15:46:48.745Z,49.80
2017-08-15T15:49:14.769Z,50.10
2017-08-15T15:51:40.834Z,50.50
2017-08-15T15:54:07.584Z,49.50
2017-08-15T15:56:33.636Z,49.40
2017-08-15T15:58:59.667Z,49.70
2017-08-15T16:01:26.457Z,49.80
2017-08-15T16:03:52.497Z,49.70
2017-08-15T16:06:19.288Z,47.80
2017-08-15T16:08:45.312Z,47.80
2017-08-15T16:11:11.336Z,46.20
2017-08-15T16:13:37.369Z,45.00
2017-08-15T16:16:03.389Z,44.80
2017-08-15T16:18:29.445Z,44.90
2017-08-15T16:20:55.465Z,44.40
2017-08-15T16:23:21.588Z,42.70
2017-08-15T16:25:47.633Z,41.90
2017-08-15T16:28:13.668Z,41.30
2017-08-15T16:30:39.712Z,42.00
2017-08-15T16:33:05.754Z,43.20
2017-08-15T16:35:31.820Z,45.50
2017-08-15T16:37:57.836Z,46.80
2017-08-15T16:40:23.860Z,47.80
2017-08-15T16:42:49.874Z,48.60
2017-08-15T16:45:15.926Z,49.30
2017-08-15T16:47:41.976Z,50.40
2017-08-15T16:50:08.000Z,50.80
2017-08-15T16:52:34.044Z,51.40
2017-08-15T16:55:00.077Z,52.00
2017-08-15T16:57:26.111Z,52.20
2017-08-15T16:59:52.128Z,52.30
2017-08-15T17:02:18.177Z,52.10
2017-08-15T17:04:44.209Z,52.70
2017-08-15T17:07:10.236Z,53.40
2017-08-15T17:09:36.277Z,53.60
2017-08-15T17:12:02.293Z,53.80
2017-08-15T17:14:28.317Z,53.90
2017-08-15T17:16:54.316Z,54.20
2017-08-15T17:19:20.325Z,54.80
2017-08-15T17:21:46.368Z,55.10
2017-08-15T17:24:12.423Z,55.80
2017-08-15T17:26:38.441Z,56.30
2017-08-15T17:29:04.496Z,56.20
2017-08-15T17:31:30.529Z,57.90
2017-08-15T17:33:56.597Z,57.60
2017-08-15T17:36:22.616Z,57.60
2017-08-15T17:38:48.651Z,57.80
2017-08-15T17:41:14.675Z,59.70
2017-08-15T17:43:40.708Z,61.40
2017-08-15T17:46:06.753Z,61.10
2017-08-15T17:48:32.773Z,65.20
2017-08-15T17:50:58.780Z,70.70
2017-08-15T17:53:24.796Z,78.60
2017-08-15T17:55:50.824Z,79.30
2017-08-15T17:58:17.584Z,89.70
2017-08-15T18:00:43.608Z,89.80
2017-08-15T18:03:09.657Z,91.80
2017-08-15T18:05:36.420Z,96.90
2017-08-15T18:08:02.444Z,96.90
2017-08-15T18:10:28.449Z,97.70
2017-08-15T18:12:54.491Z,98.10
2017-08-15T18:15:20.513Z,98.20
2017-08-15T18:17:46.549Z,98.70
2017-08-15T18:20:12.559Z,99.10
2017-08-15T18:22:38.596Z,99.60
2017-08-15T18:25:04.640Z,99.90
2017-08-15T18:27:30.676Z,99.90
2017-08-15T18:29:56.705Z,99.90
2017-08-15T18:32:22.733Z,99.90
2017-08-15T18:34:48.758Z,99.90
2017-08-15T18:37:14.776Z,99.90
2017-08-15T18:39:40.792Z,99.90
2017-08-15T18:42:06.840Z,99.90
2017-08-15T18:44:32.871Z,99.90
2017-08-15T18:46:58.881Z,99.90
2017-08-15T18:49:24.904Z,99.90
2017-08-15T18:51:50.932Z,99.90
2017-08-15T18:54:16.968Z,99.90
2017-08-15T18:56:43.725Z,99.90
2017-08-15T18:59:09.746Z,99.90
2017-08-15T19:01:35.776Z,99.90
2017-08-15T19:04:01.793Z,99.90
2017-08-15T19:06:27.821Z,99.90
2017-08-15T19:08:54.577Z,99.90
2017-08-15T19:11:20.619Z,99.90
2017-08-15T19:13:46.645Z,99.90
2017-08-15T19:16:12.669Z,99.90
2017-08-15T19:18:39.416Z,99.90
2017-08-15T19:21:05.461Z,99.90
2017-08-15T19:23:31.484Z,99.90
2017-08-15T19:25:57.507Z,99.90
2017-08-15T19:28:23.540Z,99.90
2017-08-15T19:30:50.297Z,99.90
2017-08-15T19:33:16.313Z,99.90
2017-08-15T19:35:42.326Z,99.90
2017-08-15T19:38:08.345Z,99.90
2017-08-15T19:40:34.357Z,99.90
2017-08-15T19:43:00.376Z,99.90
2017-08-15T19:45:26.388Z,99.90
2017-08-15T19:47:52.404Z,99.90
2017-08-15T19:50:18.420Z,99.90
2017-08-15T19:52:45.185Z,99.90
2017-08-15T19:55:11.192Z,99.90
2017-08-15T19:57:37.233Z,99.90
2017-08-15T20:00:03.240Z,99.90
2017-08-15T20:02:29.281Z,99.90
2017-08-15T20:04:55.306Z,99.90
2017-08-15T20:07:21.320Z,99.90
2017-08-15T20:09:47.362Z,99.90
2017-08-15T20:12:13.381Z,99.90
2017-08-15T20:14:39.417Z,99.90
2017-08-15T20:17:06.179Z,99.90
2017-08-15T20:19:32.196Z,99.90
2017-08-15T20:21:58.221Z,99.90
2017-08-15T20:24:24.237Z,99.90
2017-08-15T20:26:50.245Z,99.90
2017-08-15T20:29:16.266Z,99.90
2017-08-15T20:31:42.281Z,99.90
2017-08-15T20:34:08.318Z,99.90
2017-08-15T20:36:34.353Z,99.90
2017-08-15T20:39:00.410Z,99.90
2017-08-15T20:41:26.430Z,99.90
2017-08-15T20:43:53.190Z,99.90
2017-08-15T20:46:19.200Z,99.90
2017-08-15T20:48:45.205Z,99.90
2017-08-15T20:51:11.249Z,99.90
2017-08-15T20:53:37.281Z,99.90
2017-08-15T20:56:04.060Z,99.90
2017-08-15T20:58:30.065Z,99.90
2017-08-15T21:00:56.085Z,99.90
2017-08-15T21:03:29.090Z,99.90
2017-08-15T21:05:55.128Z,99.90
2017-08-15T21:08:21.141Z,99.90
2017-08-15T21:10:47.152Z,99.70
2017-08-15T21:13:13.164Z,99.40
2017-08-15T21:15:39.173Z,99.70
2017-08-15T21:18:05.188Z,99.70
2017-08-15T21:20:31.206Z,99.40
2017-08-15T21:22:57.231Z,99.40
2017-08-15T21:25:23.273Z,99.10
2017-08-15T21:27:49.281Z,99.10
2017-08-15T21:30:16.042Z,98.70
2017-08-15T21:32:42.061Z,98.70
2017-08-15T21:35:08.074Z,99.00
2017-08-15T21:37:34.096Z,99.00
2017-08-15T21:40:00.123Z,98.90
2017-08-15T21:42:26.164Z,99.30
2017-08-15T21:44:52.182Z,99.50
2017-08-15T21:47:18.205Z,99.60
2017-08-15T21:49:44.221Z,99.40
2017-08-15T21:52:10.244Z,99.60
2017-08-15T21:54:36.268Z,99.60
2017-08-15T21:57:02.291Z,99.60
2017-08-15T21:59:29.070Z,99.60
2017-08-15T22:02:01.160Z,99.30
2017-08-15T22:04:27.210Z,99.30
2017-08-15T22:06:53.244Z,99.30
2017-08-15T22:09:19.288Z,99.30
2017-08-15T22:11:45.294Z,99.30
2017-08-15T22:14:11.326Z,99.30
2017-08-15T22:16:37.360Z,99.30
2017-08-15T22:19:03.413Z,99.50
2017-08-15T22:21:29.438Z,99.50
2017-08-15T22:23:56.213Z,99.80
2017-08-15T22:26:22.241Z,99.70
2017-08-15T22:28:48.250Z,99.70
2017-08-15T22:31:14.272Z,99.80
2017-08-15T22:33:40.285Z,99.70
2017-08-15T22:36:06.313Z,99.60
2017-08-15T22:38:33.065Z,99.10
2017-08-15T22:40:59.082Z,99.30
2017-08-15T22:43:25.084Z,99.40
2017-08-15T22:45:51.104Z,99.30
2017-08-15T22:48:17.116Z,99.40
2017-08-15T22:50:43.120Z,99.40
2017-08-15T22:53:09.161Z,99.40
2017-08-15T22:55:35.164Z,99.80
2017-08-15T22:58:01.193Z,99.70
2017-08-15T23:00:27.209Z,99.60
2017-08-15T23:02:53.224Z,99.70
2017-08-15T23:05:19.237Z,99.80
2017-08-15T23:07:45.248Z,99.80
2017-08-15T23:10:11.264Z,99.70
2017-08-15T23:12:37.281Z,99.50
2017-08-15T23:15:03.285Z,99.60
2017-08-15T23:17:29.325Z,99.50
2017-08-15T23:19:55.353Z,99.70
2017-08-15T23:22:21.368Z,99.60
2017-08-15T23:24:47.402Z,99.60
2017-08-15T23:27:13.424Z,99.70
2017-08-15T23:29:39.445Z,99.80
2017-08-15T23:32:05.456Z,99.80
2017-08-15T23:34:31.481Z,99.50
2017-08-15T23:36:57.498Z,99.60
2017-08-15T23:39:23.528Z,99.60
2017-08-15T23:41:49.549Z,99.70
2017-08-15T23:44:15.569Z,99.60
2017-08-15T23:46:41.581Z,99.60
2017-08-15T23:49:07.615Z,99.70
2017-08-15T23:51:33.636Z,99.70
2017-08-15T23:53:59.648Z,99.80
2017-08-15T23:56:25.668Z,99.90
2017-08-15T23:58:51.704Z,99.60
